KBFM/BFM METAR and TAF weather

Enter ICAO airport designator
Station Type Date Time Source
KBFM METAR 2022/06/25 22:53 UTC NOAA

KBFM 252253Z 18008KT 10SM -RA FEW075 SCT110 26/24 A2996 RMK AO2 SLP144 P0002 T02610239


Station Type Date Time Source
KBFM Decoded METAR 2022/06/25 22:53 UTC NOAA

MOBILE DOWNTOWN AIRPORT, AL, United States (KBFM) 30-38N 88-04W 20M
Jun 25, 2022 - 06:53 PM EDT / 2022.06.25 2253 UTC
Wind: from the S (180 degrees) at 9 MPH (8 KT):0
Visibility: 10 mile(s):0
Sky conditions: partly cloudy
Weather: light rain
Precipitation last hour: 0.02 inches
Temperature: 79.0 F (26.1 C)
Dew Point: 75.0 F (23.9 C)
Relative Humidity: 87%
Pressure (altimeter): 29.96 in. Hg (1014 hPa)
ob: KBFM 252253Z 18008KT 10SM -RA FEW075 SCT110 26/24 A2996 RMK AO2 SLP144 P0002 T02610239
cycle: 23

Station Type Date Time Source
KBFM TAF 2022/06/25 18:36 UTC NOAA

TAF KBFM 251733Z 2518/2618 22010KT P6SM VCTS SCT040CB BKN100
TEMPO 2518/2522 VRB15G25KT 3SM TSRA BKN030CB
FM260200 14007KT P6SM VCTS SCT029CB BKN100 PROB30 2603/2609 2SM TSRA BKN250CB
FM260900 VRB03KT P6SM VCTS SCT030CB BKN100
FM261400 13006KT 6SM -RA VCTS SCT025CB BKN090

Example: see airport list